Leyba, New Mexico
Current Conditions -  °F | °C
As of 10:53 AM on Friday 21 Nov 2014 (Local Time) from KCQC Reporting Station
Clear Clear  
Wind Chill: 43°   Ceiling: Unl
Heat Index: 47°   Visibility: 10mi
Dew Point: 17°   Wind: 9mph
Humidity: 30%   Direction: 280°W
Pressure: 30.07"   Gusts: NA
Location:  35.2352°N, 105.52°W
Report Text: KCQC 211753Z AUTO 28008KT 10SM CLR 08/M08 A3007 RMK AO2 SLP161 T00831083 10083 21033 50002
Loading
Personal Weather Stations






























Interactive Weather Map New forecast layout! Learn more

10-Day Weather Forecast

Advertisements
Track Severe Weather on mobile